Hunt Field
KLND : now visible

Airfield :











YOU CAN JOIN US ON...

 
LOGIN :

Register | Disclaimer

   EN    FR    IT 

 









Legend :    VFR   Marginal VFR   IFR   Intensive IFR   Very Intensive IFR
Visi :
Ceiling :
>= 8 km
>= 3000ft
5 to 8 km
1000 to 3000 ft
1500m to 5 km
500 to 1000 ft
800 to 1500m
200 to 500 ft
< 800m
< 200 ft
Symbols :   Thunderstorms  Fog  Heavy snow  Heavy precipitations  Wind > 20 kt






- Airport Elevation : 5586 ft


KLND - Hunt Field

CURRENT METAR :
  • 211553Z AUTO 27005KT 10SM FEW041 BKN048 OVC060 05/02 A2999 RMK AO2 SLP146 T00500017

EXPIRED METARs :
  • 211524Z AUTO 31009KT 10SM FEW022 BKN030 OVC036 04/01 A2999 RMK AO2 T00440011
  • 211453Z AUTO 31013KT 10SM FEW010 BKN017 OVC034 04/02 A2998 RMK AO2 SLP144 60000 T00390017 52009
  • 211436Z AUTO VRB03KT 10SM FEW009 BKN013 OVC031 04/03 A2997 RMK AO2 T00440028
  • 211353Z AUTO 12004KT 10SM BKN036 OVC080 03/02 A2997 RMK AO2 SLP137 T00280022
  • 211253Z AUTO 13005KT 10SM FEW014 BKN031 OVC070 01/01 A2996 RMK AO2 RAE05UPB05E19 SLP141 P0000 T00110006
  • 211221Z AUTO 13004KT 10SM SCT028 BKN040 OVC060 02/01 A2995 RMK AO2 RAE05UPB05E19 P0000 T00170006
  • 211153Z AUTO 25007KT 8SM -RA FEW008 OVC020 02/00 A2995 RMK AO2 RAB00E17B39UPB37E39SNB17E37 SLP133 P0008 60020 70024 T00170000 10050 20006 53004
  • 211142Z AUTO 24009KT 7SM -RA FEW009 OVC022 01/00 A2994 RMK AO2 RAB00E17B39UPB37E39SNB17E37 P0006 T00110000
  • 211134Z AUTO 22004KT 6SM -SN BR SCT010 OVC020 01/M01 A2994 RMK AO2 RAB00E17SNB17 P0006 T00061006
  • 211123Z AUTO 25004KT 2SM -SN BR FEW006 OVC010 01/00 A2994 RMK AO2 RAB00E17SNB17 P0004 T00110000

TAF KLND
Valid from the 21 at 13:00 until the 22 at 12:00 UTC


211250Z 2113/2212 14006KT P6SM -RA BKN040 OVC050
FM211600 14006KT P6SM -SHRA BKN018 OVC030
FM220000 25006KT P6SM SCT070
KZLC FIR / North America



MET'MAP, your aeronautical weather chart ! - Copyright ORBIFLY December 2007 - Disclaimer

ORBIFLY MET'MAP TEAM :

Programming & Development : Alexandra Zaïnal
Original concept : Baudouin d'Aumeries
Technical & hardware support : Manuel Goepfert
Assistance : Marc-Olivier Méhu




SOURCES & CREDITS :

   NOAA       Earth
Advisory